Time;durP1;ratioP1;P1;durP2;ratioP2;P2;SDS_P1;SDS_P2;PMS_P1;PMS_P2;Temp;Humidity;BMP_temperature;BMP_pressure;BME280_temperature;BME280_humidity;BME280_pressure;Samples;Min_cycle;Max_cycle;Signal;HPM_P1;HPM_P2
2023/06/30 00:02:24;;;;;;;6.78;5.28;;;;;;;16.23;86.38;94932.47;5010779;28;20243;-85
2023/06/30 00:04:50;;;;;;;10.68;6.03;;;;;;;16.15;86.22;94941.66;5012260;28;20175;-85
2023/06/30 00:07:20;;;;;;;6.35;4.70;;;;;;;15.92;85.55;94907.28;5011356;28;20179;-85
2023/06/30 00:09:47;;;;;;;7.25;5.68;;;;;;;15.90;85.67;94897.97;5012932;28;20721;-84
2023/06/30 00:12:12;;;;;;;7.75;4.60;;;;;;;16.21;86.01;94937.22;5012503;28;20164;-85
2023/06/30 00:14:38;;;;;;;11.77;6.35;;;;;;;15.87;85.80;94872.72;5012463;28;20165;-85
2023/06/30 00:17:03;;;;;;;16.10;6.38;;;;;;;16.07;85.75;94917.34;5012713;28;20254;-85
2023/06/30 00:19:29;;;;;;;15.63;7.78;;;;;;;16.20;86.49;94949.69;5011591;28;20414;-85
2023/06/30 00:21:55;;;;;;;12.40;6.20;;;;;;;15.96;86.55;94903.13;5011140;28;20762;-85
2023/06/30 00:24:21;;;;;;;8.00;5.30;;;;;;;15.84;86.57;94891.78;5012269;28;20176;-84
2023/06/30 00:26:46;;;;;;;11.07;6.07;;;;;;;16.14;86.62;94948.00;5012328;28;20231;-84
2023/06/30 00:29:12;;;;;;;7.90;5.50;;;;;;;15.67;87.34;94886.47;5010868;28;20207;-84
2023/06/30 00:31:37;;;;;;;16.85;11.50;;;;;;;15.84;87.44;94910.34;5010943;28;20172;-84
2023/06/30 00:34:03;;;;;;;14.20;8.52;;;;;;;15.97;87.26;94928.63;5010869;28;20257;-84
2023/06/30 00:36:31;;;;;;;10.25;6.78;;;;;;;15.69;86.44;94902.16;5012183;28;20702;-84
2023/06/30 00:38:56;;;;;;;16.40;9.23;;;;;;;15.61;87.11;94897.25;5012303;28;20164;-84
2023/06/30 00:41:22;;;;;;;7.57;5.78;;;;;;;15.51;87.57;94897.03;5012257;28;20161;-84
2023/06/30 00:43:47;;;;;;;25.25;15.55;;;;;;;15.85;87.75;94954.44;5011788;28;20180;-84
2023/06/30 00:46:16;;;;;;;32.70;19.52;;;;;;;15.58;87.50;94900.38;5010537;28;20267;-84
2023/06/30 00:48:42;;;;;;;13.43;8.75;;;;;;;15.88;87.19;94948.66;5011407;28;20196;-84
2023/06/30 00:51:09;;;;;;;13.52;9.15;;;;;;;15.70;86.85;94928.47;5011751;28;20184;-85
2023/06/30 00:53:35;;;;;;;20.05;13.65;;;;;;;15.41;87.30;94895.03;5012064;28;20247;-84
2023/06/30 00:56:01;;;;;;;22.63;12.50;;;;;;;15.70;87.47;94930.31;5012491;28;20311;-84
2023/06/30 00:58:26;;;;;;;25.35;14.98;;;;;;;15.34;87.79;94886.41;5011912;28;20168;-85
2023/06/30 01:00:57;;;;;;;31.15;19.25;;;;;;;15.75;87.54;94946.31;5010668;28;20176;-85
2023/06/30 01:03:33;;;;;;;34.40;20.98;;;;;;;15.76;87.66;94945.25;5010388;28;20231;-85
2023/06/30 01:06:06;;;;;;;25.08;9.65;;;;;;;15.65;87.22;94930.25;5011758;28;20557;-85
2023/06/30 01:08:42;;;;;;;20.77;12.50;;;;;;;15.74;87.47;94936.75;5012388;28;20251;-85
2023/06/30 01:11:09;;;;;;;20.17;9.65;;;;;;;15.43;87.59;94903.56;5010468;28;20207;-85
2023/06/30 01:13:35;;;;;;;17.40;8.38;;;;;;;15.67;87.43;94947.50;5010929;28;20187;-85
2023/06/30 01:16:04;;;;;;;10.07;7.00;;;;;;;15.31;87.59;94890.34;5010522;28;20176;-85
2023/06/30 01:18:36;;;;;;;9.40;5.90;;;;;;;15.53;88.42;94918.84;5012091;28;20164;-85
2023/06/30 01:21:04;;;;;;;12.68;5.28;;;;;;;15.37;87.35;94913.28;5011903;28;20199;-85
2023/06/30 01:23:38;;;;;;;10.25;6.40;;;;;;;15.52;88.00;94941.91;5011844;28;20283;-85
2023/06/30 01:26:05;;;;;;;8.95;5.43;;;;;;;15.12;88.24;94870.41;5026895;28;20680;-85
2023/06/30 01:28:34;;;;;;;15.98;5.85;;;;;;;15.54;88.23;94934.56;5010614;28;20200;-85
2023/06/30 01:31:00;;;;;;;10.43;5.53;;;;;;;15.57;88.03;94931.41;5012127;28;20169;-85
2023/06/30 01:33:27;;;;;;;9.75;5.32;;;;;;;15.24;87.69;94881.75;5010539;28;20177;-85
2023/06/30 01:35:53;;;;;;;6.70;5.40;;;;;;;15.51;88.21;94926.22;5010543;28;20630;-85
2023/06/30 01:38:19;;;;;;;7.28;6.13;;;;;;;15.34;88.28;94899.69;5011683;28;20184;-85
2023/06/30 01:40:45;;;;;;;9.30;5.60;;;;;;;15.37;87.85;94902.66;5010421;28;20566;-85
2023/06/30 01:43:11;;;;;;;9.80;6.60;;;;;;;15.22;88.16;94886.47;5010331;28;20173;-85
2023/06/30 01:45:38;;;;;;;9.73;5.78;;;;;;;15.40;88.36;94896.06;5010316;28;20176;-85
2023/06/30 01:48:04;;;;;;;14.07;5.25;;;;;;;15.32;87.77;94889.31;5011478;28;20200;-85
2023/06/30 01:50:31;;;;;;;9.13;5.07;;;;;;;15.23;87.63;94880.13;5011884;28;20173;-85
2023/06/30 01:52:59;;;;;;;7.47;6.28;;;;;;;15.44;88.00;94916.59;5010852;28;20407;-84
2023/06/30 01:55:25;;;;;;;7.57;6.15;;;;;;;15.42;87.91;94915.22;5010189;28;20180;-85
2023/06/30 01:57:51;;;;;;;7.70;5.93;;;;;;;15.16;87.08;94876.00;5011453;28;20660;-85
2023/06/30 02:00:17;;;;;;;8.50;6.28;;;;;;;15.14;87.31;94886.03;5012731;28;20173;-85
2023/06/30 02:02:43;;;;;;;8.82;6.93;;;;;;;15.12;87.65;94878.34;5013717;28;20305;-85
2023/06/30 02:05:09;;;;;;;11.73;8.60;;;;;;;14.95;87.55;94853.66;5014963;28;20224;-85
2023/06/30 02:07:34;;;;;;;22.23;16.60;;;;;;;15.22;87.99;94905.03;5014573;28;20187;-85
2023/06/30 02:10:00;;;;;;;25.60;18.85;;;;;;;14.80;88.15;94840.09;5013314;28;20191;-84
2023/06/30 02:12:25;;;;;;;57.75;42.50;;;;;;;15.11;88.28;94890.00;5014481;28;20180;-85
2023/06/30 02:14:51;;;;;;;70.43;50.75;;;;;;;15.25;88.13;94925.78;5014237;28;20596;-85
2023/06/30 02:17:16;;;;;;;72.90;50.72;;;;;;;14.91;87.73;94877.16;5014553;28;20234;-85
2023/06/30 02:19:42;;;;;;;83.90;55.38;;;;;;;15.22;87.60;94923.59;5014853;28;20995;-85
2023/06/30 02:22:07;;;;;;;81.97;57.20;;;;;;;14.98;87.44;94893.72;5014695;28;20220;-85
2023/06/30 02:24:33;;;;;;;77.35;52.50;;;;;;;15.17;87.79;94928.81;5014440;28;20179;-84
2023/06/30 02:26:59;;;;;;;69.38;49.35;;;;;;;15.17;88.04;94934.13;5014502;28;20160;-85
2023/06/30 02:29:24;;;;;;;60.75;42.65;;;;;;;15.17;88.26;94928.00;5014635;28;20630;-84
2023/06/30 02:31:50;;;;;;;51.97;36.65;;;;;;;14.76;88.21;94863.63;5014612;28;20175;-85
2023/06/30 02:34:15;;;;;;;55.13;39.00;;;;;;;14.61;88.24;94864.16;5014631;28;20168;-84
2023/06/30 02:36:41;;;;;;;59.08;41.30;;;;;;;14.49;88.83;94841.38;5013714;28;20168;-84
2023/06/30 02:39:06;;;;;;;50.03;36.90;;;;;;;14.87;88.53;94910.50;5012859;28;20184;-83
2023/06/30 02:41:31;;;;;;;46.55;35.38;;;;;;;14.93;89.09;94928.09;5014209;28;20164;-85
2023/06/30 02:43:57;;;;;;;41.90;30.10;;;;;;;14.69;89.49;94889.47;5014106;28;20179;-85
2023/06/30 02:46:22;;;;;;;42.58;28.17;;;;;;;14.87;89.09;94913.16;5014326;28;20165;-84
2023/06/30 02:48:47;;;;;;;37.10;27.02;;;;;;;14.80;89.12;94893.09;5014087;28;20228;-85
2023/06/30 02:51:13;;;;;;;35.70;27.25;;;;;;;14.58;88.83;94858.50;5013949;28;20585;-85
2023/06/30 02:53:38;;;;;;;38.90;25.00;;;;;;;14.56;88.85;94855.28;5013492;28;20172;-84
2023/06/30 02:56:04;;;;;;;33.80;26.97;;;;;;;14.49;89.27;94859.91;5027430;28;20496;-84
2023/06/30 02:58:30;;;;;;;23.77;17.60;;;;;;;14.45;89.01;94845.53;5013490;28;20177;-84
2023/06/30 03:00:56;;;;;;;20.98;14.25;;;;;;;14.91;88.52;94918.78;5013640;28;20604;-84
2023/06/30 03:03:22;;;;;;;16.75;12.07;;;;;;;14.42;88.60;94849.47;5013606;28;20228;-84
2023/06/30 03:05:47;;;;;;;20.88;13.30;;;;;;;14.89;89.06;94920.84;5012489;28;20183;-84
2023/06/30 03:08:13;;;;;;;14.23;10.70;;;;;;;14.59;88.70;94868.88;5013852;28;20702;-84
2023/06/30 03:10:38;;;;;;;13.65;9.82;;;;;;;14.67;88.02;94881.75;5013586;28;20173;-84
2023/06/30 03:13:03;;;;;;;10.65;7.13;;;;;;;14.94;88.34;94913.00;5014030;28;20169;-84
2023/06/30 03:15:29;;;;;;;10.30;5.80;;;;;;;14.60;88.11;94878.44;5013601;28;20169;-84
2023/06/30 03:17:55;;;;;;;10.85;6.15;;;;;;;14.52;88.64;94868.22;5028821;28;20220;-84
2023/06/30 03:20:21;;;;;;;15.18;6.00;;;;;;;14.63;88.52;94885.91;5013508;28;20173;-84
2023/06/30 03:22:46;;;;;;;11.68;6.50;;;;;;;14.79;88.94;94915.38;5013531;28;20251;-84
2023/06/30 03:25:12;;;;;;;11.88;5.68;;;;;;;14.06;89.09;94810.03;5011662;28;20176;-83
2023/06/30 03:27:38;;;;;;;7.03;5.38;;;;;;;14.43;90.08;94855.56;5011755;28;20207;-80
2023/06/30 03:30:04;;;;;;;8.48;5.88;;;;;;;14.90;90.46;94912.66;5013376;28;20153;-80
2023/06/30 03:32:31;;;;;;;11.10;5.97;;;;;;;15.06;90.51;94913.75;5013173;28;20176;-82
2023/06/30 03:34:56;;;;;;;6.72;5.00;;;;;;;15.02;89.84;94883.47;5013409;28;21025;-83
2023/06/30 03:37:22;;;;;;;11.55;5.90;;;;;;;15.10;89.55;94888.38;5012712;28;20265;-83
2023/06/30 03:39:47;;;;;;;11.35;5.78;;;;;;;15.44;89.43;94921.88;5012670;28;20160;-83
2023/06/30 03:42:13;;;;;;;10.25;5.40;;;;;;;15.12;87.77;94838.59;5012498;28;20227;-84
2023/06/30 03:44:38;;;;;;;14.00;5.30;;;;;;;15.28;87.43;94872.28;5013020;28;20180;-83
2023/06/30 03:47:04;;;;;;;8.45;5.65;;;;;;;15.24;87.64;94844.59;5013127;28;20227;-83
2023/06/30 03:49:29;;;;;;;12.05;5.93;;;;;;;15.34;87.42;94839.47;5013136;28;20623;-83
2023/06/30 03:51:55;;;;;;;8.55;5.32;;;;;;;15.58;86.27;94855.25;5012837;28;20184;-84
2023/06/30 03:54:20;;;;;;;12.32;5.32;;;;;;;16.17;86.20;94920.94;5012866;28;20263;-84
2023/06/30 03:56:47;;;;;;;7.10;5.15;;;;;;;16.02;85.52;94878.25;5012838;28;20164;-84
2023/06/30 03:59:12;;;;;;;9.23;5.32;;;;;;;16.39;84.30;94915.69;5013068;28;20239;-83
2023/06/30 04:01:39;;;;;;;9.15;5.20;;;;;;;16.26;83.52;94880.72;5012688;28;20260;-84
2023/06/30 04:04:05;;;;;;;7.38;4.80;;;;;;;16.66;83.14;94934.41;5012578;28;20231;-84
2023/06/30 04:06:33;;;;;;;8.05;4.50;;;;;;;16.45;82.81;94874.84;5012953;28;20695;-84
2023/06/30 04:08:59;;;;;;;16.95;5.65;;;;;;;16.76;82.28;94915.13;5012753;28;20231;-84
2023/06/30 04:11:24;;;;;;;12.70;4.88;;;;;;;16.92;82.20;94931.03;5011351;28;20204;-84
2023/06/30 04:13:49;;;;;;;13.48;5.28;;;;;;;16.91;82.20;94910.78;5012663;28;20175;-84
2023/06/30 04:16:17;;;;;;;7.63;5.15;;;;;;;17.29;83.02;94936.50;5011300;28;20183;-84
2023/06/30 04:18:42;;;;;;;7.43;4.78;;;;;;;17.42;81.11;94935.28;5012580;28;20165;-84
2023/06/30 04:21:08;;;;;;;6.82;5.20;;;;;;;17.19;80.87;94885.84;5011207;28;20853;-84
2023/06/30 04:23:33;;;;;;;12.02;4.85;;;;;;;17.44;79.89;94903.91;5010746;28;20172;-85
2023/06/30 04:26:00;;;;;;;7.60;4.85;;;;;;;17.56;80.38;94890.41;5012406;28;20160;-86
2023/06/30 04:28:26;;;;;;;7.60;5.13;;;;;;;17.90;79.75;94904.34;5011087;28;20295;-84
2023/06/30 04:30:51;;;;;;;8.98;4.93;;;;;;;17.98;79.65;94893.19;5011165;28;20252;-83
2023/06/30 04:33:17;;;;;;;9.45;4.88;;;;;;;18.18;78.49;94884.53;5012320;28;20182;-83
2023/06/30 04:35:43;;;;;;;8.23;4.90;;;;;;;18.39;77.03;94892.41;5012224;28;20297;-84
2023/06/30 04:38:09;;;;;;;6.90;4.85;;;;;;;18.52;76.35;94879.66;5011059;28;20175;-83
2023/06/30 04:40:35;;;;;;;12.98;4.43;;;;;;;19.02;75.24;94938.59;5012653;28;20160;-83
2023/06/30 04:43:00;;;;;;;10.95;5.45;;;;;;;19.18;75.54;94942.94;5012206;28;20200;-86
2023/06/30 04:45:26;;;;;;;7.63;4.80;;;;;;;19.04;75.62;94875.06;5012483;28;20251;-85
2023/06/30 04:47:51;;;;;;;7.25;4.88;;;;;;;19.61;73.99;94932.91;5012061;28;20192;-84
2023/06/30 04:50:17;;;;;;;5.40;4.72;;;;;;;19.61;72.64;94906.22;5012150;28;20243;-84
2023/06/30 04:52:43;;;;;;;8.00;5.88;;;;;;;20.02;70.71;94931.06;5012112;28;20156;-85
2023/06/30 04:55:09;;;;;;;8.18;4.85;;;;;;;19.81;70.25;94876.81;5010757;28;20172;-84
2023/06/30 04:57:34;;;;;;;6.65;4.45;;;;;;;20.16;69.62;94901.91;5012061;28;20695;-85
2023/06/30 05:00:00;;;;;;;9.35;5.28;;;;;;;20.61;68.76;94944.66;5010756;28;20161;-85
2023/06/30 05:02:26;;;;;;;8.77;5.93;;;;;;;20.68;70.04;94898.88;5011673;28;20243;-85
2023/06/30 05:04:51;;;;;;;12.18;5.72;;;;;;;20.95;67.13;94903.88;5010181;28;20180;-84
2023/06/30 05:07:16;;;;;;;12.65;7.03;;;;;;;21.46;65.95;94944.63;5011587;28;20231;-84
2023/06/30 05:09:42;;;;;;;16.10;8.25;;;;;;;21.60;65.17;94910.00;5011841;28;20192;-84
2023/06/30 05:12:09;;;;;;;15.88;5.75;;;;;;;22.14;64.32;94939.41;5011884;28;20164;-84
2023/06/30 05:14:34;;;;;;;8.40;5.85;;;;;;;22.26;62.82;94912.19;5010656;28;20546;-84
2023/06/30 05:17:00;;;;;;;13.13;8.40;;;;;;;22.84;62.69;94943.28;5027318;28;20238;-84
2023/06/30 05:19:25;;;;;;;10.27;5.57;;;;;;;23.14;62.60;94927.91;5012295;28;20165;-84
2023/06/30 05:21:52;;;;;;;11.65;6.25;;;;;;;23.41;60.47;94908.50;5012118;28;20704;-84
2023/06/30 05:24:18;;;;;;;21.35;12.05;;;;;;;23.65;60.86;94879.69;5011896;28;20552;-84
2023/06/30 05:26:43;;;;;;;13.32;8.18;;;;;;;24.23;58.08;94920.47;5012137;28;20165;-84
2023/06/30 05:29:09;;;;;;;8.18;6.55;;;;;;;24.67;55.33;94898.41;5010525;28;20665;-84
2023/06/30 05:31:35;;;;;;;9.02;4.75;;;;;;;25.37;54.29;94941.25;5012367;28;20157;-83
2023/06/30 05:34:01;;;;;;;13.75;5.30;;;;;;;25.56;52.87;94933.84;5011849;28;20169;-84
2023/06/30 05:36:28;;;;;;;16.70;6.63;;;;;;;25.72;52.38;94936.22;5014914;28;20153;-84
2023/06/30 05:38:53;;;;;;;10.93;5.00;;;;;;;26.03;51.90;94945.22;5015792;28;20247;-84
2023/06/30 05:41:18;;;;;;;9.63;5.32;;;;;;;26.26;52.41;94941.47;5015780;28;20319;-84
2023/06/30 05:43:44;;;;;;;11.88;5.40;;;;;;;26.45;51.61;94946.66;5015475;28;21093;-84
2023/06/30 05:46:09;;;;;;;10.32;4.53;;;;;;;26.65;51.48;94953.44;5015433;28;20168;-85
2023/06/30 05:48:34;;;;;;;7.43;4.75;;;;;;;26.83;51.19;94936.22;5014808;28;20323;-84
2023/06/30 05:51:00;;;;;;;7.72;4.47;;;;;;;26.96;50.25;94953.47;5014954;28;20318;-85
2023/06/30 05:53:25;;;;;;;8.20;4.88;;;;;;;26.92;50.99;94955.19;5014846;28;20189;-84
2023/06/30 05:55:51;;;;;;;6.95;4.55;;;;;;;26.91;50.87;94913.06;5013856;28;20192;-84
2023/06/30 05:58:16;;;;;;;6.28;4.82;;;;;;;27.44;50.84;94926.41;5013500;28;20172;-84
2023/06/30 06:00:41;;;;;;;8.73;4.82;;;;;;;27.71;50.34;94955.94;5013468;28;20259;-84
2023/06/30 06:03:07;;;;;;;6.13;4.53;;;;;;;27.53;50.22;94929.94;5013329;28;20615;-85
2023/06/30 06:05:32;;;;;;;5.30;3.80;;;;;;;27.39;47.91;94953.63;5014661;28;20172;-84
2023/06/30 06:07:57;;;;;;;9.68;6.88;;;;;;;26.89;49.78;94945.78;5014745;28;20283;-85
2023/06/30 06:10:23;;;;;;;10.75;5.65;;;;;;;26.63;50.51;94934.84;5014460;28;20172;-85
2023/06/30 06:12:50;;;;;;;12.05;6.40;;;;;;;26.75;50.74;94934.25;5012999;28;20610;-85
2023/06/30 06:15:16;;;;;;;11.38;4.78;;;;;;;26.78;51.40;94947.16;5012327;28;20169;-84
2023/06/30 06:17:41;;;;;;;6.65;4.13;;;;;;;26.87;49.93;94945.31;5013008;28;20172;-85
2023/06/30 06:20:07;;;;;;;9.77;4.93;;;;;;;26.87;49.44;94914.78;5014511;28;20570;-86
2023/06/30 06:22:32;;;;;;;11.43;5.43;;;;;;;26.92;48.89;94928.16;5013529;28;20172;-85
2023/06/30 06:24:57;;;;;;;11.98;4.65;;;;;;;26.52;50.23;94897.59;5014809;28;20198;-85
2023/06/30 06:27:23;;;;;;;6.95;4.88;;;;;;;25.91;50.53;94917.97;5029869;28;20176;-85
2023/06/30 06:29:48;;;;;;;8.20;5.70;;;;;;;25.54;53.56;94878.59;5014546;28;20192;-86
2023/06/30 06:32:14;;;;;;;14.13;7.55;;;;;;;25.76;53.66;94896.75;5014395;28;20188;-85
2023/06/30 06:34:39;;;;;;;10.07;6.10;;;;;;;25.94;54.55;94901.19;5012897;28;20200;-85
2023/06/30 06:37:04;;;;;;;8.38;5.32;;;;;;;26.33;55.27;94929.41;5029261;28;20259;-85
2023/06/30 06:39:30;;;;;;;9.00;4.63;;;;;;;26.43;52.81;94908.38;5013925;28;20191;-85
2023/06/30 06:41:56;;;;;;;9.32;5.18;;;;;;;26.81;50.80;94935.72;5014272;28;20215;-85
2023/06/30 06:44:22;;;;;;;9.05;4.70;;;;;;;26.42;49.65;94917.56;5029994;28;20202;-85
2023/06/30 06:46:47;;;;;;;7.57;6.05;;;;;;;26.12;50.36;94897.47;5012701;28;20632;-85
2023/06/30 06:49:13;;;;;;;11.85;4.28;;;;;;;26.30;53.10;94942.41;5029382;28;20325;-85
2023/06/30 06:51:38;;;;;;;10.75;4.53;;;;;;;26.16;53.20;94900.38;5014269;28;20248;-85
2023/06/30 06:54:03;;;;;;;24.40;5.00;;;;;;;26.54;51.58;94941.31;5014194;28;20165;-85
2023/06/30 06:56:29;;;;;;;8.77;4.82;;;;;;;25.99;50.93;94873.28;5014477;28;20199;-85
2023/06/30 06:58:54;;;;;;;10.50;4.47;;;;;;;26.50;52.90;94937.63;5012842;28;20161;-85
2023/06/30 07:01:20;;;;;;;7.95;4.00;;;;;;;26.60;55.81;94903.06;5029242;28;20610;-85
2023/06/30 07:03:45;;;;;;;8.63;4.10;;;;;;;26.87;52.96;94882.34;5013931;28;20645;-85
2023/06/30 07:06:11;;;;;;;9.27;4.50;;;;;;;27.45;49.89;94935.34;5014115;28;20684;-85
2023/06/30 07:08:37;;;;;;;5.50;3.90;;;;;;;27.28;48.00;94915.25;5014250;28;20204;-85
2023/06/30 07:11:05;;;;;;;8.10;4.30;;;;;;;27.03;50.44;94895.16;5012664;28;20255;-86
2023/06/30 07:13:31;;;;;;;6.93;4.65;;;;;;;27.27;52.73;94896.63;5012715;28;20176;-86
2023/06/30 07:15:56;;;;;;;8.18;4.43;;;;;;;27.67;53.63;94927.94;5014193;28;20201;-82
2023/06/30 07:18:22;;;;;;;9.90;4.43;;;;;;;27.90;51.02;94931.28;5028578;28;20165;-82
2023/06/30 07:20:48;;;;;;;9.00;3.88;;;;;;;27.86;48.09;94914.09;5013446;28;20639;-86
2023/06/30 07:23:14;;;;;;;13.10;4.70;;;;;;;27.65;50.48;94902.31;5013319;28;20546;-86
2023/06/30 07:25:39;;;;;;;10.18;5.75;;;;;;;27.68;50.34;94896.25;5013267;28;20168;-87
2023/06/30 07:28:05;;;;;;;5.30;4.03;;;;;;;27.86;53.24;94892.44;5028795;28;20186;-89
2023/06/30 07:30:30;;;;;;;6.13;4.15;;;;;;;27.87;48.38;94860.75;5012219;28;20176;-86
2023/06/30 07:32:56;;;;;;;7.38;4.18;;;;;;;28.35;52.01;94914.72;5012229;28;20208;-87
2023/06/30 07:35:22;;;;;;;6.10;3.75;;;;;;;28.57;49.11;94913.72;5013580;28;20192;-88
2023/06/30 07:37:49;;;;;;;10.13;4.40;;;;;;;28.32;49.97;94850.34;5013353;28;20184;-87
2023/06/30 07:40:15;;;;;;;8.93;4.25;;;;;;;28.65;47.86;94885.78;5013769;28;20157;-88
2023/06/30 07:42:41;;;;;;;9.93;4.10;;;;;;;28.15;46.65;94903.41;5012181;28;20180;-86
2023/06/30 07:45:08;;;;;;;10.50;3.97;;;;;;;27.66;48.66;94872.22;5028544;28;20215;-84
2023/06/30 07:47:33;;;;;;;4.22;3.83;;;;;;;27.82;46.00;94925.88;5012712;28;20168;-87
2023/06/30 07:50:01;;;;;;;4.75;3.55;;;;;;;27.56;44.54;94915.81;5012375;28;20270;-82
2023/06/30 07:52:27;;;;;;;4.55;3.40;;;;;;;27.49;45.23;94915.47;5012500;28;20181;-81
2023/06/30 07:54:55;;;;;;;3.70;2.40;;;;;;;27.57;47.47;94919.31;5012800;28;20234;-81
2023/06/30 07:57:24;;;;;;;4.57;2.50;;;;;;;27.73;42.63;94926.66;5012530;28;20263;-80
2023/06/30 07:59:50;;;;;;;5.32;2.80;;;;;;;27.77;47.66;94902.47;5012390;28;20172;-83
2023/06/30 08:02:17;;;;;;;6.18;3.80;;;;;;;27.73;47.41;94850.91;5012480;28;20220;-87
2023/06/30 08:04:43;;;;;;;3.80;3.40;;;;;;;27.87;48.08;94855.34;5013132;28;20165;-90
2023/06/30 08:07:08;;;;;;;6.63;3.95;;;;;;;28.33;46.90;94906.13;5011858;28;20180;-88
2023/06/30 08:09:34;;;;;;;4.57;3.40;;;;;;;28.29;47.63;94881.59;5011614;28;20208;-86
2023/06/30 08:11:59;;;;;;;5.55;3.22;;;;;;;28.45;44.90;94866.41;5012896;28;20547;-83
2023/06/30 08:14:25;;;;;;;6.35;3.45;;;;;;;28.30;42.17;94871.56;5012797;28;20615;-88
2023/06/30 08:16:50;;;;;;;6.57;2.90;;;;;;;28.57;47.42;94909.09;5012479;28;20172;-83
2023/06/30 08:19:15;;;;;;;13.27;4.70;;;;;;;28.66;43.83;94907.16;5012632;28;20160;-83
2023/06/30 08:21:41;;;;;;;7.22;3.88;;;;;;;28.54;45.19;94901.63;5012436;28;21044;-83
2023/06/30 08:24:07;;;;;;;7.32;3.35;;;;;;;28.24;44.75;94837.63;5011204;28;20218;-83
2023/06/30 08:26:32;;;;;;;6.63;2.72;;;;;;;28.07;43.21;94874.44;5027503;28;20659;-83
2023/06/30 08:28:58;;;;;;;5.35;2.95;;;;;;;27.95;44.70;94887.81;5012395;28;20196;-85
2023/06/30 08:31:23;;;;;;;2.63;2.38;;;;;;;27.90;46.09;94847.38;5010927;28;20156;-84
2023/06/30 08:33:49;;;;;;;4.63;2.80;;;;;;;28.17;43.54;94856.28;5011010;28;20206;-86
2023/06/30 08:36:14;;;;;;;24.77;5.25;;;;;;;28.44;48.36;94877.59;5012244;28;20168;-85
2023/06/30 08:38:39;;;;;;;5.35;3.00;;;;;;;28.21;45.79;94838.28;5011178;28;20169;-83
2023/06/30 08:41:05;;;;;;;4.40;2.53;;;;;;;28.51;47.49;94842.66;5012384;28;20567;-83
2023/06/30 08:43:31;;;;;;;6.45;2.45;;;;;;;28.75;43.10;94872.69;5011798;28;20196;-80
2023/06/30 08:46:01;;;;;;;6.90;2.88;;;;;;;28.73;47.53;94844.31;5011631;28;20695;-81
2023/06/30 08:48:29;;;;;;;6.68;2.67;;;;;;;28.88;44.25;94871.72;5011576;28;20282;-81
2023/06/30 08:50:55;;;;;;;14.95;2.97;;;;;;;28.71;44.82;94814.84;5011959;28;20199;-83
2023/06/30 08:53:23;;;;;;;6.45;2.90;;;;;;;28.69;43.67;94819.81;5012428;28;20640;-80
2023/06/30 08:55:50;;;;;;;4.43;3.03;;;;;;;28.48;44.37;94821.63;5012065;28;20175;-81
2023/06/30 08:58:16;;;;;;;3.95;2.78;;;;;;;28.69;45.63;94848.81;5011923;28;20203;-81
2023/06/30 09:00:42;;;;;;;3.67;2.63;;;;;;;28.64;45.91;94828.09;5011929;28;20238;-84
2023/06/30 09:03:08;;;;;;;9.63;2.97;;;;;;;28.63;40.37;94836.56;5011446;28;20707;-83
2023/06/30 09:05:37;;;;;;;5.10;2.97;;;;;;;28.38;42.38;94838.22;5010204;28;20235;-82
2023/06/30 09:08:08;;;;;;;3.33;2.80;;;;;;;28.12;45.16;94801.16;5011586;28;20560;-82
2023/06/30 09:10:37;;;;;;;5.35;3.00;;;;;;;28.40;41.52;94852.25;5015206;28;20160;-82
2023/06/30 09:13:04;;;;;;;9.52;2.90;;;;;;;27.75;42.14;94839.75;5015973;28;20196;-82
2023/06/30 09:15:30;;;;;;;6.22;3.00;;;;;;;27.81;46.85;94853.91;5016139;28;20165;-82
2023/06/30 09:17:56;;;;;;;2.90;2.70;;;;;;;28.07;45.54;94855.47;5015877;28;20187;-82
2023/06/30 09:20:22;;;;;;;10.18;3.30;;;;;;;27.96;42.49;94826.34;5014363;28;20267;-81
2023/06/30 09:22:47;;;;;;;4.35;3.10;;;;;;;26.75;43.86;94809.19;5015323;28;20610;-81
2023/06/30 09:25:25;;;;;;;4.05;3.15;;;;;;;27.02;46.80;94857.63;5013992;28;20184;-81
2023/06/30 09:27:51;;;;;;;7.00;3.67;;;;;;;27.11;48.40;94850.31;5011964;28;20180;-80
2023/06/30 09:30:17;;;;;;;13.25;4.55;;;;;;;27.43;48.71;94822.06;5015388;28;20243;-82
2023/06/30 09:32:42;;;;;;;5.22;2.60;;;;;;;27.06;46.60;94757.78;5013981;28;20624;-83
2023/06/30 09:35:12;;;;;;;3.40;2.97;;;;;;;27.08;45.46;94790.69;5015786;28;20640;-83
2023/06/30 09:37:42;;;;;;;3.55;2.97;;;;;;;27.43;49.66;94841.78;5015699;28;20244;-83
2023/06/30 09:40:14;;;;;;;6.53;3.97;;;;;;;27.52;47.00;94835.56;5015286;28;20231;-83
2023/06/30 09:42:43;;;;;;;4.38;3.75;;;;;;;27.37;48.84;94799.78;5015187;28;20168;-83
2023/06/30 09:45:10;;;;;;;5.68;3.17;;;;;;;27.45;48.10;94783.88;5013836;28;20569;-83
2023/06/30 09:47:35;;;;;;;3.65;3.08;;;;;;;27.88;47.81;94827.16;5014849;28;20227;-82
2023/06/30 09:50:02;;;;;;;4.03;3.30;;;;;;;27.98;47.77;94826.84;5015540;28;20275;-81
2023/06/30 09:52:30;;;;;;;4.57;3.20;;;;;;;28.08;46.44;94829.22;5015341;28;20169;-79
2023/06/30 09:54:56;;;;;;;4.40;3.17;;;;;;;27.95;45.49;94820.13;5015271;28;20559;-81
2023/06/30 09:57:26;;;;;;;6.43;3.35;;;;;;;27.51;44.91;94799.63;5014760;28;20171;-81
2023/06/30 09:59:52;;;;;;;3.70;3.15;;;;;;;27.71;49.98;94815.25;5012655;28;20175;-84
2023/06/30 10:02:18;;;;;;;7.25;3.08;;;;;;;27.92;49.41;94825.41;5014450;28;20172;-83
2023/06/30 10:04:43;;;;;;;14.15;3.90;;;;;;;27.76;47.53;94792.66;5014636;28;20621;-81
2023/06/30 10:07:11;;;;;;;8.73;3.60;;;;;;;27.95;48.38;94814.72;5014905;28;20208;-83
2023/06/30 10:09:40;;;;;;;7.00;3.33;;;;;;;28.02;50.02;94820.44;5015334;28;20204;-83
2023/06/30 10:12:08;;;;;;;4.65;3.20;;;;;;;27.88;49.02;94773.03;5014541;28;20854;-82
2023/06/30 10:14:36;;;;;;;6.85;3.42;;;;;;;28.05;48.61;94797.34;5029893;28;20565;-91
2023/06/30 10:17:03;;;;;;;7.97;4.25;;;;;;;27.67;49.95;94762.91;5014287;28;20171;-86
2023/06/30 10:19:29;;;;;;;9.43;3.45;;;;;;;27.68;53.68;94794.22;5012834;28;21040;-90
2023/06/30 10:21:55;;;;;;;6.65;3.42;;;;;;;27.11;48.05;94734.09;5014088;28;20562;-87
2023/06/30 10:24:26;;;;;;;3.25;2.70;;;;;;;26.76;48.17;94729.72;5014843;28;20192;-86
2023/06/30 10:26:53;;;;;;;5.30;3.38;;;;;;;27.03;51.79;94794.34;5014805;28;20165;-85
2023/06/30 10:29:20;;;;;;;7.25;3.38;;;;;;;26.55;48.91;94740.34;5014895;28;20279;-86
2023/06/30 10:31:45;;;;;;;5.28;3.85;;;;;;;26.09;52.38;94705.69;5014808;28;20592;-89
2023/06/30 10:34:12;;;;;;;5.35;3.50;;;;;;;26.19;54.63;94745.91;5014602;28;20169;-85
2023/06/30 10:36:38;;;;;;;6.65;4.25;;;;;;;26.13;54.79;94747.13;5015132;28;20161;-88
2023/06/30 10:39:04;;;;;;;4.22;3.67;;;;;;;26.05;55.21;94751.41;5013294;28;20199;-89
2023/06/30 10:41:29;;;;;;;7.13;3.90;;;;;;;25.77;52.73;94725.72;5012490;28;20419;-88
2023/06/30 10:44:18;;;;;;;6.50;3.78;;;;;;;25.90;55.43;94751.81;5014394;28;20153;-88
2023/06/30 10:46:57;;;;;;;9.17;4.20;;;;;;;25.50;56.90;94695.09;5013066;28;20428;-88
2023/06/30 10:49:38;;;;;;;9.57;4.43;;;;;;;25.75;55.24;94749.50;5013774;28;20418;-87
2023/06/30 10:52:06;;;;;;;4.55;3.58;;;;;;;25.71;56.72;94753.91;5013126;28;20652;-87
2023/06/30 10:54:49;;;;;;;8.05;3.80;;;;;;;25.52;57.17;94716.31;5013843;28;20164;-87
2023/06/30 10:57:19;;;;;;;3.53;3.22;;;;;;;25.64;53.07;94740.06;5012376;28;20172;-86
2023/06/30 10:59:46;;;;;;;5.82;3.42;;;;;;;25.20;52.08;94690.44;5013857;28;20161;-86
2023/06/30 11:02:22;;;;;;;6.70;3.67;;;;;;;25.28;54.91;94724.72;5012745;28;20417;-85
2023/06/30 11:04:52;;;;;;;4.28;3.70;;;;;;;25.39;56.69;94738.78;5012816;28;20219;-81
2023/06/30 11:07:29;;;;;;;7.72;4.10;;;;;;;25.44;56.74;94734.03;5014321;28;20160;-85
2023/06/30 11:09:59;;;;;;;8.65;3.85;;;;;;;25.38;59.43;94718.31;5012741;28;20220;-85
2023/06/30 11:12:45;;;;;;;5.30;4.50;;;;;;;25.23;57.27;94697.13;5013689;28;20199;-87
2023/06/30 11:15:34;;;;;;;9.70;4.25;;;;;;;25.36;56.51;94704.31;5010283;28;20567;-85
2023/06/30 11:18:01;;;;;;;6.60;3.83;;;;;;;25.20;53.48;94676.94;5011531;28;20184;-86
2023/06/30 11:20:27;;;;;;;7.95;3.88;;;;;;;25.49;53.71;94723.16;5011248;28;20644;-84
2023/06/30 11:23:00;;;;;;;5.53;3.85;;;;;;;25.49;52.74;94727.75;5009903;28;20538;-86
2023/06/30 11:25:35;;;;;;;7.40;4.38;;;;;;;25.31;55.17;94685.59;5011097;28;20222;-87
2023/06/30 11:28:04;;;;;;;11.57;4.82;;;;;;;25.49;55.79;94706.97;5009681;28;20180;-85